createdAt,value
2023-05-09T00:00:39.084Z,45.25
2023-05-09T00:03:05.793Z,45.35
2023-05-09T00:05:32.249Z,45.22
2023-05-09T00:07:58.711Z,45.08
2023-05-09T00:10:25.124Z,45.08
2023-05-09T00:12:52.139Z,45.45
2023-05-09T00:15:19.080Z,45.44
2023-05-09T00:17:45.939Z,45.58
2023-05-09T00:20:12.926Z,45.65
2023-05-09T00:22:42.687Z,45.45
2023-05-09T00:25:09.760Z,45.40
2023-05-09T00:27:36.596Z,45.77
2023-05-09T00:30:04.995Z,45.69
2023-05-09T00:32:32.813Z,45.85
2023-05-09T00:34:59.331Z,45.88
2023-05-09T00:37:26.714Z,45.80
2023-05-09T00:39:53.140Z,45.75
2023-05-09T00:42:19.611Z,45.65
2023-05-09T00:44:46.468Z,45.67
2023-05-09T00:47:12.956Z,45.86
2023-05-09T00:49:39.405Z,45.97
2023-05-09T00:52:06.273Z,45.77
2023-05-09T00:54:33.091Z,45.84
2023-05-09T00:57:00.370Z,45.61
2023-05-09T00:59:27.643Z,45.90
2023-05-09T01:01:54.111Z,45.67
2023-05-09T01:04:20.582Z,45.84
2023-05-09T01:07:06.206Z,45.93
2023-05-09T01:09:57.791Z,46.07
2023-05-09T01:12:42.543Z,46.22
2023-05-09T01:15:13.801Z,46.12
2023-05-09T01:18:01.204Z,46.10
2023-05-09T01:20:37.859Z,46.14
2023-05-09T01:23:45.210Z,46.16
2023-05-09T01:26:26.044Z,46.20
2023-05-09T01:29:19.361Z,46.17
2023-05-09T01:31:49.107Z,46.44
2023-05-09T01:34:18.027Z,46.21
2023-05-09T01:36:46.973Z,46.45
2023-05-09T01:39:13.960Z,46.49
2023-05-09T01:41:40.537Z,46.35
2023-05-09T01:44:10.643Z,46.41
2023-05-09T01:46:38.109Z,46.48
2023-05-09T01:49:07.580Z,46.48
2023-05-09T01:51:36.545Z,46.64
2023-05-09T01:54:05.156Z,46.52
2023-05-09T01:56:32.290Z,46.49
2023-05-09T01:59:00.888Z,46.54
2023-05-09T02:01:28.263Z,46.57
2023-05-09T02:03:56.098Z,46.54
2023-05-09T02:06:24.129Z,46.66
2023-05-09T02:08:51.159Z,46.59
2023-05-09T02:11:17.642Z,46.65
2023-05-09T02:13:44.131Z,46.79
2023-05-09T02:16:12.125Z,46.52
2023-05-09T02:18:38.673Z,46.51
2023-05-09T02:21:06.218Z,46.49
2023-05-09T02:23:32.643Z,46.71
2023-05-09T02:25:59.445Z,46.64
2023-05-09T02:28:27.235Z,46.72
2023-05-09T02:30:57.071Z,46.82
2023-05-09T02:33:24.128Z,46.88
2023-05-09T02:35:51.853Z,46.79
2023-05-09T02:38:19.186Z,46.95
2023-05-09T02:40:47.519Z,47.00
2023-05-09T02:43:15.344Z,46.95
2023-05-09T02:45:42.084Z,46.87
2023-05-09T02:48:09.362Z,47.16
2023-05-09T02:50:38.349Z,47.01
2023-05-09T02:53:06.109Z,46.98
2023-05-09T02:55:33.601Z,47.14
2023-05-09T02:58:12.902Z,47.07
2023-05-09T03:00:42.523Z,47.18
2023-05-09T03:03:09.265Z,47.12
2023-05-09T03:05:35.886Z,47.19
2023-05-09T03:08:02.354Z,47.33
2023-05-09T03:10:29.047Z,47.31
2023-05-09T03:12:55.764Z,47.38
2023-05-09T03:15:23.035Z,47.54
2023-05-09T03:17:49.627Z,47.39
2023-05-09T03:20:16.184Z,47.32
2023-05-09T03:22:42.606Z,47.47
2023-05-09T03:25:11.103Z,47.49
2023-05-09T03:27:38.489Z,47.52
2023-05-09T03:30:08.343Z,47.63
2023-05-09T03:32:35.077Z,47.75
2023-05-09T03:35:01.596Z,47.73
2023-05-09T03:37:28.078Z,47.75
2023-05-09T03:39:54.606Z,47.79
2023-05-09T03:42:22.223Z,47.74
2023-05-09T03:44:51.044Z,47.82
2023-05-09T03:47:21.429Z,47.90
2023-05-09T03:49:48.892Z,47.92
2023-05-09T03:52:18.429Z,47.98
2023-05-09T03:54:45.434Z,48.13
2023-05-09T03:57:11.966Z,47.98
2023-05-09T03:59:38.493Z,48.18
2023-05-09T04:02:05.023Z,48.25
2023-05-09T04:04:31.565Z,48.04
2023-05-09T04:06:58.658Z,48.05
2023-05-09T04:09:25.830Z,48.26
2023-05-09T04:11:53.190Z,48.00
2023-05-09T04:14:19.773Z,48.11
2023-05-09T04:16:46.298Z,48.30
2023-05-09T04:19:12.923Z,48.25
2023-05-09T04:21:39.374Z,48.33
2023-05-09T04:24:06.312Z,48.38
2023-05-09T04:26:40.929Z,48.58
2023-05-09T04:29:11.229Z,48.36
2023-05-09T04:31:38.107Z,48.55
2023-05-09T04:34:06.580Z,48.47
2023-05-09T04:36:34.848Z,48.11
2023-05-09T04:39:02.034Z,48.63
2023-05-09T04:41:29.391Z,48.65
2023-05-09T04:43:55.888Z,48.64
2023-05-09T04:46:25.980Z,48.71
2023-05-09T04:48:53.369Z,48.80
2023-05-09T04:51:20.407Z,48.91
2023-05-09T04:53:46.990Z,48.95
2023-05-09T04:56:15.136Z,48.98
2023-05-09T04:58:42.296Z,49.00
2023-05-09T05:01:10.502Z,49.13
2023-05-09T05:03:38.029Z,49.16
2023-05-09T05:06:06.503Z,49.31
2023-05-09T05:08:33.655Z,49.03
2023-05-09T05:11:00.516Z,49.36
2023-05-09T05:13:27.944Z,49.39
2023-05-09T05:15:58.733Z,49.46
2023-05-09T05:18:25.220Z,49.55
2023-05-09T05:20:51.779Z,49.46
2023-05-09T05:23:18.435Z,49.64
2023-05-09T05:25:45.467Z,49.66
2023-05-09T05:28:13.324Z,49.71
2023-05-09T05:30:41.574Z,49.84
2023-05-09T05:33:08.070Z,49.69
2023-05-09T05:35:34.633Z,49.77
2023-05-09T05:38:01.455Z,50.01
2023-05-09T05:40:28.173Z,49.79
2023-05-09T05:42:56.047Z,50.00
2023-05-09T05:45:23.716Z,49.99
2023-05-09T05:47:54.401Z,49.90
2023-05-09T05:50:22.614Z,49.92
2023-05-09T05:52:49.220Z,50.10
2023-05-09T05:55:18.004Z,50.01
2023-05-09T05:57:44.759Z,50.11
2023-05-09T06:00:15.145Z,50.11
2023-05-09T06:02:49.387Z,50.30
2023-05-09T06:05:30.914Z,50.43
2023-05-09T06:07:57.560Z,50.60
2023-05-09T06:10:24.017Z,50.41
2023-05-09T06:12:50.521Z,50.42
2023-05-09T06:15:17.838Z,50.30
2023-05-09T06:17:46.973Z,50.35
2023-05-09T06:20:13.408Z,50.33
2023-05-09T06:22:39.852Z,50.30
2023-05-09T06:25:08.665Z,50.27
2023-05-09T06:27:36.689Z,50.58
2023-05-09T06:30:14.164Z,50.52
2023-05-09T06:32:49.690Z,50.36
2023-05-09T06:35:16.325Z,50.54
2023-05-09T06:37:43.309Z,50.59
2023-05-09T06:40:09.995Z,50.73
2023-05-09T06:42:36.440Z,50.75
2023-05-09T06:45:03.275Z,50.72
2023-05-09T06:47:29.766Z,50.96
2023-05-09T06:49:56.201Z,51.01
2023-05-09T06:52:22.728Z,51.11
2023-05-09T06:54:49.130Z,50.94
2023-05-09T06:57:15.867Z,51.17
2023-05-09T06:59:42.304Z,51.00
2023-05-09T07:02:08.726Z,50.86
2023-05-09T07:04:35.247Z,50.81
2023-05-09T07:07:01.778Z,50.66
2023-05-09T07:09:28.739Z,50.99
2023-05-09T07:11:55.573Z,51.07
2023-05-09T07:14:22.316Z,51.40
2023-05-09T07:16:48.780Z,51.30
2023-05-09T07:19:15.358Z,51.33
2023-05-09T07:21:41.774Z,51.37
2023-05-09T07:24:08.269Z,51.40
2023-05-09T07:26:37.731Z,51.44
2023-05-09T07:29:04.191Z,51.63
2023-05-09T07:31:31.002Z,51.46
2023-05-09T07:33:57.594Z,51.49
2023-05-09T07:36:24.013Z,51.33
2023-05-09T07:38:52.648Z,51.19
2023-05-09T07:41:19.424Z,51.46
2023-05-09T07:43:45.894Z,51.22
2023-05-09T07:46:12.459Z,51.26
2023-05-09T07:48:39.152Z,50.90
2023-05-09T07:51:05.702Z,51.04
2023-05-09T07:53:32.166Z,51.04
2023-05-09T07:55:58.959Z,51.08
2023-05-09T07:58:25.666Z,51.00
2023-05-09T08:00:52.063Z,50.94
2023-05-09T08:03:20.737Z,50.72
2023-05-09T08:05:47.296Z,50.76
2023-05-09T08:08:13.737Z,50.55
2023-05-09T08:10:40.167Z,50.27
2023-05-09T08:13:06.620Z,50.42
2023-05-09T08:15:33.153Z,50.58
2023-05-09T08:17:59.732Z,50.60
2023-05-09T08:20:26.262Z,50.51
2023-05-09T08:22:52.693Z,50.47
2023-05-09T08:25:20.722Z,50.52
2023-05-09T08:27:47.203Z,50.60
2023-05-09T08:30:14.213Z,50.41
2023-05-09T08:32:41.241Z,50.52
2023-05-09T08:35:08.973Z,50.44
2023-05-09T08:37:38.530Z,50.48
2023-05-09T08:40:08.571Z,50.46
2023-05-09T08:42:37.486Z,50.36
2023-05-09T08:45:11.366Z,50.25
2023-05-09T08:47:38.718Z,50.13
2023-05-09T08:50:06.395Z,50.31
2023-05-09T08:52:33.877Z,50.23
2023-05-09T08:55:07.296Z,49.85
2023-05-09T08:57:37.134Z,49.88
2023-05-09T09:00:07.612Z,50.03
2023-05-09T09:02:35.447Z,49.69
2023-05-09T09:05:02.917Z,49.67
2023-05-09T09:07:31.248Z,49.65
2023-05-09T09:09:58.722Z,49.65
2023-05-09T09:12:26.120Z,49.51
2023-05-09T09:14:55.115Z,49.46
2023-05-09T09:17:28.031Z,49.31
2023-05-09T09:19:58.992Z,49.49
2023-05-09T09:22:33.844Z,48.87
2023-05-09T09:25:01.635Z,48.90
2023-05-09T09:27:28.356Z,48.64
2023-05-09T09:29:54.869Z,48.83
2023-05-09T09:32:32.927Z,48.45
2023-05-09T09:35:10.730Z,48.09
2023-05-09T09:37:43.544Z,48.59
2023-05-09T09:40:11.699Z,48.38
2023-05-09T09:42:43.543Z,48.28
2023-05-09T09:45:15.275Z,48.18
2023-05-09T09:47:44.531Z,48.12
2023-05-09T09:50:15.906Z,47.97
2023-05-09T09:52:50.419Z,47.72
2023-05-09T09:55:21.190Z,47.50
2023-05-09T09:57:48.311Z,47.55
2023-05-09T10:00:17.570Z,47.63
2023-05-09T10:02:53.404Z,47.50
2023-05-09T10:05:28.040Z,47.50
2023-05-09T10:08:03.024Z,47.18
2023-05-09T10:10:31.670Z,47.47
2023-05-09T10:13:00.198Z,47.33
2023-05-09T10:15:33.475Z,47.14
2023-05-09T10:18:08.035Z,47.29
2023-05-09T10:20:35.772Z,47.20
2023-05-09T10:23:03.894Z,46.86
2023-05-09T10:25:46.695Z,46.30
2023-05-09T10:28:17.739Z,46.74
2023-05-09T10:30:56.635Z,46.44
2023-05-09T10:33:30.879Z,46.28
2023-05-09T10:35:58.570Z,46.55
2023-05-09T10:38:25.419Z,46.73
2023-05-09T10:40:54.239Z,46.60
2023-05-09T10:43:21.736Z,46.34
2023-05-09T10:45:48.578Z,46.19
2023-05-09T10:48:15.604Z,46.23
2023-05-09T10:50:43.526Z,46.14
2023-05-09T10:53:21.609Z,46.51
2023-05-09T10:55:59.968Z,46.27
2023-05-09T10:58:33.659Z,45.84
2023-05-09T11:01:01.551Z,45.90
2023-05-09T11:03:49.363Z,45.54
2023-05-09T11:06:53.995Z,45.40
2023-05-09T11:09:39.096Z,45.64
2023-05-09T11:12:05.748Z,45.47
2023-05-09T11:14:46.790Z,45.25
2023-05-09T11:17:15.620Z,44.98
2023-05-09T11:19:44.968Z,44.93
2023-05-09T11:22:14.685Z,45.24
2023-05-09T11:24:52.223Z,44.96
2023-05-09T11:27:26.922Z,45.05
2023-05-09T11:29:55.838Z,45.24
2023-05-09T11:32:28.021Z,44.75
2023-05-09T11:35:09.478Z,44.70
2023-05-09T11:37:52.865Z,44.65
2023-05-09T11:40:20.938Z,44.74
2023-05-09T11:42:50.459Z,44.44
2023-05-09T11:45:17.842Z,44.88
2023-05-09T11:47:46.101Z,44.56
2023-05-09T11:50:13.912Z,44.71
2023-05-09T11:52:40.612Z,44.71
2023-05-09T11:55:12.694Z,44.75
2023-05-09T11:57:50.876Z,44.42
2023-05-09T12:00:25.695Z,44.11
2023-05-09T12:02:53.656Z,44.57
2023-05-09T12:05:22.712Z,44.66
2023-05-09T12:07:49.580Z,44.46
2023-05-09T12:10:19.883Z,44.13
2023-05-09T12:12:49.102Z,43.90
2023-05-09T12:15:16.885Z,44.27
2023-05-09T12:17:45.107Z,43.93
2023-05-09T12:20:12.694Z,43.51
2023-05-09T12:22:43.044Z,43.79
2023-05-09T12:25:10.696Z,43.47
2023-05-09T12:27:38.699Z,43.40
2023-05-09T12:30:09.815Z,43.21
2023-05-09T12:32:37.770Z,43.28
2023-05-09T12:35:04.756Z,42.74
2023-05-09T12:37:34.510Z,43.06
2023-05-09T12:40:06.248Z,43.10
2023-05-09T12:42:34.380Z,42.98
2023-05-09T12:45:04.693Z,43.19
2023-05-09T12:47:32.055Z,43.10
2023-05-09T12:49:59.590Z,43.20
2023-05-09T12:52:33.146Z,43.65
2023-05-09T12:55:05.986Z,42.82
2023-05-09T12:57:32.399Z,42.79
2023-05-09T13:00:00.041Z,43.19
2023-05-09T13:02:30.433Z,42.95
2023-05-09T13:05:13.183Z,42.50
2023-05-09T13:07:47.149Z,42.67
2023-05-09T13:10:15.157Z,42.46
2023-05-09T13:12:45.148Z,42.51
2023-05-09T13:15:12.063Z,42.50
2023-05-09T13:17:38.718Z,42.43
2023-05-09T13:20:06.054Z,42.63
2023-05-09T13:22:33.006Z,41.75
2023-05-09T13:24:59.719Z,42.15
2023-05-09T13:27:27.806Z,41.76
2023-05-09T13:29:54.274Z,41.77
2023-05-09T13:32:20.931Z,41.68
2023-05-09T13:34:47.353Z,41.81
2023-05-09T13:37:13.796Z,41.85
2023-05-09T13:39:40.333Z,41.76
2023-05-09T13:42:07.088Z,41.84
2023-05-09T13:44:33.512Z,41.66
2023-05-09T13:47:00.283Z,42.10
2023-05-09T13:49:27.787Z,41.87
2023-05-09T13:51:55.076Z,41.92
2023-05-09T13:54:22.952Z,41.75
2023-05-09T13:56:51.152Z,41.77
2023-05-09T13:59:17.644Z,41.04
2023-05-09T14:01:44.410Z,40.95
2023-05-09T14:04:11.106Z,40.92
2023-05-09T14:06:37.617Z,40.92
2023-05-09T14:09:04.355Z,40.81
2023-05-09T14:11:31.052Z,41.06
2023-05-09T14:13:57.596Z,40.43
2023-05-09T14:16:24.054Z,40.54
2023-05-09T14:18:50.605Z,40.81
2023-05-09T14:21:17.023Z,40.90
2023-05-09T14:23:43.653Z,41.12
2023-05-09T14:26:10.155Z,40.52
2023-05-09T14:28:38.129Z,40.77
2023-05-09T14:31:04.682Z,40.49
2023-05-09T14:33:32.920Z,40.50
2023-05-09T14:36:01.139Z,40.83
2023-05-09T14:38:27.602Z,40.26
2023-05-09T14:40:54.029Z,40.42
2023-05-09T14:43:22.184Z,40.19
2023-05-09T14:45:48.577Z,39.90
2023-05-09T14:48:16.178Z,39.72
2023-05-09T14:50:43.056Z,39.30
2023-05-09T14:53:11.029Z,39.17
2023-05-09T14:55:37.523Z,38.87
2023-05-09T14:58:03.963Z,39.55
2023-05-09T15:00:30.444Z,39.63
2023-05-09T15:02:57.483Z,39.01
2023-05-09T15:05:24.111Z,37.84
2023-05-09T15:07:50.647Z,38.39
2023-05-09T15:10:17.437Z,38.27
2023-05-09T15:12:44.249Z,38.73
2023-05-09T15:15:15.254Z,38.96
2023-05-09T15:17:43.136Z,38.61
2023-05-09T15:20:10.764Z,38.62
2023-05-09T15:22:37.552Z,38.54
2023-05-09T15:25:06.218Z,38.86
2023-05-09T15:27:32.917Z,39.11
2023-05-09T15:29:59.397Z,38.99
2023-05-09T15:32:26.056Z,38.66
2023-05-09T15:34:52.568Z,38.75
2023-05-09T15:37:19.034Z,38.88
2023-05-09T15:39:46.243Z,38.68
2023-05-09T15:42:13.342Z,38.56
2023-05-09T15:44:40.728Z,38.14
2023-05-09T15:47:07.762Z,37.79
2023-05-09T15:49:34.482Z,37.98
2023-05-09T15:52:03.832Z,38.23
2023-05-09T15:54:31.748Z,38.87
2023-05-09T15:56:59.253Z,38.57
2023-05-09T15:59:26.383Z,38.69
2023-05-09T16:01:53.250Z,38.18
2023-05-09T16:04:19.965Z,38.24
2023-05-09T16:06:47.235Z,38.23
2023-05-09T16:09:13.741Z,38.37
2023-05-09T16:11:40.926Z,38.63
2023-05-09T16:14:11.959Z,38.65
2023-05-09T16:16:39.432Z,38.72
2023-05-09T16:19:06.742Z,38.48
2023-05-09T16:21:33.420Z,38.19
2023-05-09T16:24:02.915Z,38.04
2023-05-09T16:26:29.433Z,38.81
2023-05-09T16:28:55.903Z,38.48
2023-05-09T16:31:26.336Z,38.41
2023-05-09T16:33:54.041Z,38.47
2023-05-09T16:36:21.248Z,38.18
2023-05-09T16:38:47.828Z,38.52
2023-05-09T16:41:14.475Z,38.69
2023-05-09T16:43:41.441Z,38.34
2023-05-09T16:46:08.038Z,38.38
2023-05-09T16:48:34.545Z,38.21
2023-05-09T16:51:00.949Z,38.81
2023-05-09T16:53:28.254Z,38.03
2023-05-09T16:55:54.989Z,37.65
2023-05-09T16:58:21.465Z,37.58
2023-05-09T17:00:48.188Z,37.71
2023-05-09T17:03:14.774Z,38.13
2023-05-09T17:05:41.178Z,38.05
2023-05-09T17:08:07.781Z,37.08
2023-05-09T17:10:37.058Z,37.34
2023-05-09T17:13:08.422Z,36.99
2023-05-09T17:15:34.916Z,36.84
2023-05-09T17:18:01.950Z,36.50
2023-05-09T17:20:28.886Z,37.33
2023-05-09T17:22:56.343Z,37.37
2023-05-09T17:25:23.352Z,36.71
2023-05-09T17:27:49.783Z,36.66
2023-05-09T17:30:16.615Z,36.63
2023-05-09T17:32:43.364Z,36.29
2023-05-09T17:35:09.987Z,36.68
2023-05-09T17:37:36.441Z,36.24
2023-05-09T17:40:05.048Z,36.33
2023-05-09T17:42:31.560Z,36.62
2023-05-09T17:44:57.979Z,36.10
2023-05-09T17:47:24.434Z,36.52
2023-05-09T17:49:52.013Z,36.89
2023-05-09T17:52:18.538Z,36.41
2023-05-09T17:54:45.216Z,35.59
2023-05-09T17:57:11.613Z,35.91
2023-05-09T17:59:40.513Z,36.66
2023-05-09T18:02:07.913Z,36.15
2023-05-09T18:04:34.668Z,35.98
2023-05-09T18:07:01.306Z,36.13
2023-05-09T18:09:28.117Z,36.87
2023-05-09T18:11:54.604Z,36.55
2023-05-09T18:14:21.117Z,36.83
2023-05-09T18:16:47.549Z,37.10
2023-05-09T18:19:14.017Z,37.30
2023-05-09T18:21:40.461Z,36.32
2023-05-09T18:24:09.355Z,35.71
2023-05-09T18:26:35.901Z,36.45
2023-05-09T18:29:02.361Z,37.04
2023-05-09T18:31:29.415Z,36.35
2023-05-09T18:33:56.302Z,36.52
2023-05-09T18:36:23.102Z,36.93
2023-05-09T18:38:49.556Z,36.34
2023-05-09T18:41:16.921Z,37.72
2023-05-09T18:43:46.420Z,37.36
2023-05-09T18:46:21.036Z,37.29
2023-05-09T18:48:51.947Z,37.98
2023-05-09T18:51:19.714Z,37.13
2023-05-09T18:53:47.334Z,37.73
2023-05-09T18:56:14.013Z,37.84
2023-05-09T18:58:40.582Z,37.80
2023-05-09T19:01:11.183Z,37.79
2023-05-09T19:03:43.651Z,37.53
2023-05-09T19:06:12.805Z,38.03
2023-05-09T19:08:40.532Z,37.64
2023-05-09T19:11:07.212Z,37.80
2023-05-09T19:13:37.080Z,37.58
2023-05-09T19:16:08.172Z,38.31
2023-05-09T19:18:34.742Z,38.36
2023-05-09T19:21:01.584Z,38.66
2023-05-09T19:23:28.101Z,38.08
2023-05-09T19:25:55.420Z,38.18
2023-05-09T19:28:23.026Z,38.76
2023-05-09T19:30:50.157Z,38.50
2023-05-09T19:33:16.721Z,38.58
2023-05-09T19:35:43.793Z,38.57
2023-05-09T19:38:11.823Z,38.45
2023-05-09T19:40:39.079Z,38.37
2023-05-09T19:43:05.693Z,38.69
2023-05-09T19:45:32.156Z,38.83
2023-05-09T19:47:59.445Z,39.15
2023-05-09T19:50:26.385Z,38.66
2023-05-09T19:52:52.898Z,38.67
2023-05-09T19:55:19.827Z,38.56
2023-05-09T19:57:46.987Z,38.51
2023-05-09T20:00:14.238Z,38.71
2023-05-09T20:02:41.103Z,38.42
2023-05-09T20:05:08.120Z,38.49
2023-05-09T20:07:34.597Z,38.62
2023-05-09T20:10:01.088Z,38.90
2023-05-09T20:12:30.198Z,38.81
2023-05-09T20:14:57.278Z,38.81
2023-05-09T20:17:23.872Z,38.83
2023-05-09T20:19:50.700Z,39.33
2023-05-09T20:22:17.209Z,38.59
2023-05-09T20:24:43.645Z,39.23
2023-05-09T20:27:10.090Z,39.25
2023-05-09T20:29:36.560Z,39.19
2023-05-09T20:32:03.298Z,38.80
2023-05-09T20:34:29.754Z,39.20
2023-05-09T20:36:56.240Z,39.42
2023-05-09T20:39:23.406Z,39.01
2023-05-09T20:41:51.405Z,39.31
2023-05-09T20:44:18.314Z,38.82
2023-05-09T20:46:45.443Z,39.13
2023-05-09T20:49:12.404Z,39.33
2023-05-09T20:51:38.977Z,39.25
2023-05-09T20:54:05.727Z,39.06
2023-05-09T20:56:33.564Z,39.28
2023-05-09T20:59:00.991Z,39.46
2023-05-09T21:01:27.519Z,39.02
2023-05-09T21:03:54.233Z,39.09
2023-05-09T21:06:21.060Z,39.63
2023-05-09T21:08:47.471Z,39.67
2023-05-09T21:11:13.932Z,39.50
2023-05-09T21:13:40.428Z,39.60
2023-05-09T21:16:07.077Z,39.62
2023-05-09T21:18:33.479Z,39.39
2023-05-09T21:21:07.233Z,39.94
2023-05-09T21:23:34.477Z,39.99
2023-05-09T21:26:01.049Z,39.59
2023-05-09T21:28:27.641Z,39.64
2023-05-09T21:30:54.349Z,39.61
2023-05-09T21:33:21.169Z,39.31
2023-05-09T21:35:47.705Z,39.84
2023-05-09T21:38:14.270Z,39.79
2023-05-09T21:40:41.116Z,39.88
2023-05-09T21:43:07.537Z,39.94
2023-05-09T21:45:33.944Z,40.12
2023-05-09T21:48:00.751Z,40.35
2023-05-09T21:50:27.288Z,40.29
2023-05-09T21:52:56.083Z,40.04
2023-05-09T21:55:22.825Z,40.29
2023-05-09T21:57:49.326Z,40.01
2023-05-09T22:00:16.872Z,40.44
2023-05-09T22:02:43.840Z,40.31
2023-05-09T22:05:11.469Z,40.63
2023-05-09T22:07:37.969Z,40.40
2023-05-09T22:10:04.904Z,40.00
2023-05-09T22:12:31.632Z,40.19
2023-05-09T22:14:58.070Z,40.23
2023-05-09T22:17:24.670Z,40.54
2023-05-09T22:19:51.296Z,40.33
2023-05-09T22:22:17.888Z,40.38
2023-05-09T22:24:44.360Z,40.38
2023-05-09T22:27:11.317Z,40.42
2023-05-09T22:29:37.951Z,40.49
2023-05-09T22:32:07.512Z,40.18
2023-05-09T22:34:34.944Z,40.54
2023-05-09T22:37:01.350Z,40.55
2023-05-09T22:39:27.906Z,40.48
2023-05-09T22:41:54.287Z,40.35
2023-05-09T22:44:20.940Z,40.68
2023-05-09T22:46:47.325Z,40.77
2023-05-09T22:49:13.750Z,40.80
2023-05-09T22:51:40.177Z,40.94
2023-05-09T22:54:06.654Z,40.94
2023-05-09T22:56:33.170Z,41.09
2023-05-09T22:58:59.673Z,41.00
2023-05-09T23:01:27.301Z,41.14
2023-05-09T23:03:53.941Z,41.03
2023-05-09T23:06:20.334Z,41.34
2023-05-09T23:08:46.801Z,41.02
2023-05-09T23:11:13.234Z,41.35
2023-05-09T23:13:39.647Z,41.44
2023-05-09T23:16:06.452Z,41.56
2023-05-09T23:18:32.902Z,41.53
2023-05-09T23:20:59.317Z,41.38
2023-05-09T23:23:25.818Z,41.70
2023-05-09T23:25:52.243Z,41.62
2023-05-09T23:28:20.343Z,41.71
2023-05-09T23:30:46.869Z,41.73
2023-05-09T23:33:13.314Z,41.90
2023-05-09T23:35:39.762Z,41.73
2023-05-09T23:38:06.337Z,41.98
2023-05-09T23:40:32.893Z,42.26
2023-05-09T23:42:59.443Z,41.92
2023-05-09T23:45:26.042Z,41.97
2023-05-09T23:47:52.592Z,42.12
2023-05-09T23:50:19.261Z,42.07
2023-05-09T23:52:49.118Z,42.22
2023-05-09T23:55:15.623Z,42.25
2023-05-09T23:57:42.176Z,42.18
